sensor_id;sensor_type;location;lat;lon;timestamp;temperature;humidity
8475;DHT22;4274;52.012;8.448;2023-08-24T00:01:31;17.80;99.90
8475;DHT22;4274;52.012;8.448;2023-08-24T00:03:57;17.70;99.90
8475;DHT22;4274;52.012;8.448;2023-08-24T00:06:22;17.70;99.90
8475;DHT22;4274;52.012;8.448;2023-08-24T00:08:48;17.70;99.90
8475;DHT22;4274;52.012;8.448;2023-08-24T00:11:13;17.70;99.90
8475;DHT22;4274;52.012;8.448;2023-08-24T00:13:43;17.70;99.90
8475;DHT22;4274;52.012;8.448;2023-08-24T00:16:17;17.70;99.90
8475;DHT22;4274;52.012;8.448;2023-08-24T00:18:42;17.70;99.90
8475;DHT22;4274;52.012;8.448;2023-08-24T00:21:08;17.70;99.90
8475;DHT22;4274;52.012;8.448;2023-08-24T00:23:34;17.70;99.90
8475;DHT22;4274;52.012;8.448;2023-08-24T00:25:59;17.70;99.90
8475;DHT22;4274;52.012;8.448;2023-08-24T00:28:28;17.70;99.90
8475;DHT22;4274;52.012;8.448;2023-08-24T00:30:54;17.70;99.90
8475;DHT22;4274;52.012;8.448;2023-08-24T00:33:19;17.70;99.90
8475;DHT22;4274;52.012;8.448;2023-08-24T00:35:45;17.70;99.90
8475;DHT22;4274;52.012;8.448;2023-08-24T00:38:10;17.70;99.90
8475;DHT22;4274;52.012;8.448;2023-08-24T00:40:36;17.70;99.90
8475;DHT22;4274;52.012;8.448;2023-08-24T00:43:02;17.70;99.90
8475;DHT22;4274;52.012;8.448;2023-08-24T00:45:27;17.60;99.90
8475;DHT22;4274;52.012;8.448;2023-08-24T00:47:55;17.70;99.90
8475;DHT22;4274;52.012;8.448;2023-08-24T00:50:20;17.70;99.90
8475;DHT22;4274;52.012;8.448;2023-08-24T00:52:47;17.70;99.90
8475;DHT22;4274;52.012;8.448;2023-08-24T00:55:13;17.60;99.90
8475;DHT22;4274;52.012;8.448;2023-08-24T00:57:40;17.60;99.90
8475;DHT22;4274;52.012;8.448;2023-08-24T01:00:07;17.60;99.90
8475;DHT22;4274;52.012;8.448;2023-08-24T01:02:39;17.60;99.90
8475;DHT22;4274;52.012;8.448;2023-08-24T01:05:06;17.60;99.90
8475;DHT22;4274;52.012;8.448;2023-08-24T01:07:33;17.50;99.90
8475;DHT22;4274;52.012;8.448;2023-08-24T01:10:00;17.50;99.90
8475;DHT22;4274;52.012;8.448;2023-08-24T01:15:13;17.50;99.90
8475;DHT22;4274;52.012;8.448;2023-08-24T01:17:43;17.50;99.90
8475;DHT22;4274;52.012;8.448;2023-08-24T01:20:10;17.40;99.90
8475;DHT22;4274;52.012;8.448;2023-08-24T01:25:39;17.50;99.90
8475;DHT22;4274;52.012;8.448;2023-08-24T01:28:09;17.40;99.90
8475;DHT22;4274;52.012;8.448;2023-08-24T01:30:36;17.40;99.90
8475;DHT22;4274;52.012;8.448;2023-08-24T01:33:03;17.40;99.90
8475;DHT22;4274;52.012;8.448;2023-08-24T01:35:30;17.30;99.90
8475;DHT22;4274;52.012;8.448;2023-08-24T01:37:56;17.30;99.90
8475;DHT22;4274;52.012;8.448;2023-08-24T01:40:29;17.30;99.90
8475;DHT22;4274;52.012;8.448;2023-08-24T01:43:04;17.30;99.90
8475;DHT22;4274;52.012;8.448;2023-08-24T01:45:31;17.30;99.90
8475;DHT22;4274;52.012;8.448;2023-08-24T01:48:00;17.30;99.90
8475;DHT22;4274;52.012;8.448;2023-08-24T01:50:26;17.30;99.90
8475;DHT22;4274;52.012;8.448;2023-08-24T01:52:52;17.40;99.90
8475;DHT22;4274;52.012;8.448;2023-08-24T01:55:18;17.40;99.90
8475;DHT22;4274;52.012;8.448;2023-08-24T01:57:44;17.40;99.90
8475;DHT22;4274;52.012;8.448;2023-08-24T02:00:10;17.40;99.90
8475;DHT22;4274;52.012;8.448;2023-08-24T02:02:36;17.40;99.90
8475;DHT22;4274;52.012;8.448;2023-08-24T02:05:05;17.40;99.90
8475;DHT22;4274;52.012;8.448;2023-08-24T02:07:30;17.40;99.90
8475;DHT22;4274;52.012;8.448;2023-08-24T02:09:56;17.30;99.90
8475;DHT22;4274;52.012;8.448;2023-08-24T02:12:21;17.30;99.90
8475;DHT22;4274;52.012;8.448;2023-08-24T02:14:47;17.30;99.90
8475;DHT22;4274;52.012;8.448;2023-08-24T02:17:13;17.30;99.90
8475;DHT22;4274;52.012;8.448;2023-08-24T02:19:39;17.20;99.90
8475;DHT22;4274;52.012;8.448;2023-08-24T02:22:06;17.20;99.90
8475;DHT22;4274;52.012;8.448;2023-08-24T02:24:32;17.20;99.90
8475;DHT22;4274;52.012;8.448;2023-08-24T02:26:58;17.20;99.90
8475;DHT22;4274;52.012;8.448;2023-08-24T02:29:23;17.20;99.90
8475;DHT22;4274;52.012;8.448;2023-08-24T02:31:52;17.10;99.90
8475;DHT22;4274;52.012;8.448;2023-08-24T02:34:18;17.10;99.90
8475;DHT22;4274;52.012;8.448;2023-08-24T02:36:44;17.10;99.90
8475;DHT22;4274;52.012;8.448;2023-08-24T02:39:10;17.10;99.90
8475;DHT22;4274;52.012;8.448;2023-08-24T02:41:35;17.10;99.90
8475;DHT22;4274;52.012;8.448;2023-08-24T02:44:01;17.10;99.90
8475;DHT22;4274;52.012;8.448;2023-08-24T02:46:27;17.10;99.90
8475;DHT22;4274;52.012;8.448;2023-08-24T02:48:53;17.10;99.90
8475;DHT22;4274;52.012;8.448;2023-08-24T02:51:21;17.10;99.90
8475;DHT22;4274;52.012;8.448;2023-08-24T02:53:47;17.10;99.90
8475;DHT22;4274;52.012;8.448;2023-08-24T02:56:13;17.10;99.90
8475;DHT22;4274;52.012;8.448;2023-08-24T02:58:38;17.10;99.90
8475;DHT22;4274;52.012;8.448;2023-08-24T03:01:05;17.10;99.90
8475;DHT22;4274;52.012;8.448;2023-08-24T03:03:37;17.00;99.90
8475;DHT22;4274;52.012;8.448;2023-08-24T03:06:04;17.00;99.90
8475;DHT22;4274;52.012;8.448;2023-08-24T03:08:31;16.90;99.90
8475;DHT22;4274;52.012;8.448;2023-08-24T03:10:58;16.90;99.90
8475;DHT22;4274;52.012;8.448;2023-08-24T03:13:24;16.80;99.90
8475;DHT22;4274;52.012;8.448;2023-08-24T03:15:50;16.80;99.90
8475;DHT22;4274;52.012;8.448;2023-08-24T03:18:16;16.80;99.90
8475;DHT22;4274;52.012;8.448;2023-08-24T03:20:43;16.80;99.90
8475;DHT22;4274;52.012;8.448;2023-08-24T03:23:09;16.70;99.90
8475;DHT22;4274;52.012;8.448;2023-08-24T03:25:39;16.70;99.90
8475;DHT22;4274;52.012;8.448;2023-08-24T03:28:06;16.70;99.90
8475;DHT22;4274;52.012;8.448;2023-08-24T03:30:33;16.70;99.90
8475;DHT22;4274;52.012;8.448;2023-08-24T03:32:59;16.60;99.90
8475;DHT22;4274;52.012;8.448;2023-08-24T03:35:25;16.60;99.90
8475;DHT22;4274;52.012;8.448;2023-08-24T03:37:51;16.50;99.90
8475;DHT22;4274;52.012;8.448;2023-08-24T03:40:16;16.50;99.90
8475;DHT22;4274;52.012;8.448;2023-08-24T03:42:42;16.50;99.90
8475;DHT22;4274;52.012;8.448;2023-08-24T03:45:08;16.40;99.90
8475;DHT22;4274;52.012;8.448;2023-08-24T03:47:34;16.40;99.90
8475;DHT22;4274;52.012;8.448;2023-08-24T03:49:59;16.40;99.90
8475;DHT22;4274;52.012;8.448;2023-08-24T03:52:25;16.40;99.90
8475;DHT22;4274;52.012;8.448;2023-08-24T03:54:50;16.40;99.90
8475;DHT22;4274;52.012;8.448;2023-08-24T03:57:16;16.40;99.90
8475;DHT22;4274;52.012;8.448;2023-08-24T03:59:42;16.40;99.90
8475;DHT22;4274;52.012;8.448;2023-08-24T04:02:07;16.40;99.90
8475;DHT22;4274;52.012;8.448;2023-08-24T04:04:33;16.40;99.90
8475;DHT22;4274;52.012;8.448;2023-08-24T04:06:58;16.50;99.90
8475;DHT22;4274;52.012;8.448;2023-08-24T04:09:24;16.50;99.90
8475;DHT22;4274;52.012;8.448;2023-08-24T04:11:50;16.50;99.90
8475;DHT22;4274;52.012;8.448;2023-08-24T04:14:15;16.50;99.90
8475;DHT22;4274;52.012;8.448;2023-08-24T04:16:41;16.60;99.90
8475;DHT22;4274;52.012;8.448;2023-08-24T04:19:07;16.60;99.90
8475;DHT22;4274;52.012;8.448;2023-08-24T04:21:33;16.70;99.90
8475;DHT22;4274;52.012;8.448;2023-08-24T04:23:59;16.70;99.90
8475;DHT22;4274;52.012;8.448;2023-08-24T04:26:25;16.70;99.90
8475;DHT22;4274;52.012;8.448;2023-08-24T04:28:50;16.70;99.90
8475;DHT22;4274;52.012;8.448;2023-08-24T04:31:16;16.80;99.90
8475;DHT22;4274;52.012;8.448;2023-08-24T04:33:41;16.80;99.90
8475;DHT22;4274;52.012;8.448;2023-08-24T04:36:07;16.80;99.90
8475;DHT22;4274;52.012;8.448;2023-08-24T04:38:33;16.80;99.90
8475;DHT22;4274;52.012;8.448;2023-08-24T04:40:59;16.90;99.90
8475;DHT22;4274;52.012;8.448;2023-08-24T04:43:25;16.90;99.90
8475;DHT22;4274;52.012;8.448;2023-08-24T04:45:52;16.90;99.90
8475;DHT22;4274;52.012;8.448;2023-08-24T04:48:22;17.00;99.90
8475;DHT22;4274;52.012;8.448;2023-08-24T04:50:48;16.90;99.90
8475;DHT22;4274;52.012;8.448;2023-08-24T04:53:19;17.00;99.90
8475;DHT22;4274;52.012;8.448;2023-08-24T04:55:45;17.00;99.90
8475;DHT22;4274;52.012;8.448;2023-08-24T04:58:12;17.10;99.90
8475;DHT22;4274;52.012;8.448;2023-08-24T05:00:38;17.10;99.90
8475;DHT22;4274;52.012;8.448;2023-08-24T05:03:05;17.10;99.90
8475;DHT22;4274;52.012;8.448;2023-08-24T05:05:31;17.10;99.90
8475;DHT22;4274;52.012;8.448;2023-08-24T05:07:58;17.10;99.90
8475;DHT22;4274;52.012;8.448;2023-08-24T05:10:25;17.20;99.90
8475;DHT22;4274;52.012;8.448;2023-08-24T05:12:50;17.20;99.90
8475;DHT22;4274;52.012;8.448;2023-08-24T05:15:16;17.20;99.90
8475;DHT22;4274;52.012;8.448;2023-08-24T05:17:42;17.40;99.90
8475;DHT22;4274;52.012;8.448;2023-08-24T05:20:08;17.50;99.90
8475;DHT22;4274;52.012;8.448;2023-08-24T05:22:37;17.50;99.90
8475;DHT22;4274;52.012;8.448;2023-08-24T05:25:03;17.50;99.90
8475;DHT22;4274;52.012;8.448;2023-08-24T05:27:30;17.50;99.90
8475;DHT22;4274;52.012;8.448;2023-08-24T05:29:55;17.50;99.90
8475;DHT22;4274;52.012;8.448;2023-08-24T05:32:21;17.50;99.90
8475;DHT22;4274;52.012;8.448;2023-08-24T05:34:46;17.50;99.90
8475;DHT22;4274;52.012;8.448;2023-08-24T05:37:12;17.50;99.90
8475;DHT22;4274;52.012;8.448;2023-08-24T05:39:38;17.50;99.90
8475;DHT22;4274;52.012;8.448;2023-08-24T05:42:04;17.60;99.90
8475;DHT22;4274;52.012;8.448;2023-08-24T05:44:29;17.60;99.90
8475;DHT22;4274;52.012;8.448;2023-08-24T05:46:55;17.60;99.90
8475;DHT22;4274;52.012;8.448;2023-08-24T05:49:21;17.60;99.90
8475;DHT22;4274;52.012;8.448;2023-08-24T05:51:46;17.70;99.90
8475;DHT22;4274;52.012;8.448;2023-08-24T05:54:12;17.70;99.90
8475;DHT22;4274;52.012;8.448;2023-08-24T05:56:38;17.70;99.90
8475;DHT22;4274;52.012;8.448;2023-08-24T05:59:04;17.80;99.90
8475;DHT22;4274;52.012;8.448;2023-08-24T06:01:30;17.80;99.90
8475;DHT22;4274;52.012;8.448;2023-08-24T06:03:55;17.90;99.90
8475;DHT22;4274;52.012;8.448;2023-08-24T06:06:21;17.90;99.90
8475;DHT22;4274;52.012;8.448;2023-08-24T06:08:46;17.90;99.90
8475;DHT22;4274;52.012;8.448;2023-08-24T06:11:12;18.00;99.90
8475;DHT22;4274;52.012;8.448;2023-08-24T06:13:37;18.00;99.90
8475;DHT22;4274;52.012;8.448;2023-08-24T06:16:03;18.00;99.90
8475;DHT22;4274;52.012;8.448;2023-08-24T06:18:29;18.00;99.90
8475;DHT22;4274;52.012;8.448;2023-08-24T06:20:54;18.00;99.90
8475;DHT22;4274;52.012;8.448;2023-08-24T06:23:20;18.10;99.90
8475;DHT22;4274;52.012;8.448;2023-08-24T06:25:47;18.10;99.90
8475;DHT22;4274;52.012;8.448;2023-08-24T06:28:12;18.10;99.90
8475;DHT22;4274;52.012;8.448;2023-08-24T06:30:39;18.20;99.90
8475;DHT22;4274;52.012;8.448;2023-08-24T06:33:05;18.30;99.90
8475;DHT22;4274;52.012;8.448;2023-08-24T06:35:35;18.30;99.90
8475;DHT22;4274;52.012;8.448;2023-08-24T06:38:02;18.30;99.90
8475;DHT22;4274;52.012;8.448;2023-08-24T06:40:28;18.40;99.90
8475;DHT22;4274;52.012;8.448;2023-08-24T06:42:53;18.50;99.90
8475;DHT22;4274;52.012;8.448;2023-08-24T06:45:19;18.60;99.90
8475;DHT22;4274;52.012;8.448;2023-08-24T06:47:44;18.70;99.90
8475;DHT22;4274;52.012;8.448;2023-08-24T06:50:11;18.80;99.90
8475;DHT22;4274;52.012;8.448;2023-08-24T06:52:36;18.90;99.90
8475;DHT22;4274;52.012;8.448;2023-08-24T06:55:02;19.00;99.90
8475;DHT22;4274;52.012;8.448;2023-08-24T06:57:29;19.10;99.90
8475;DHT22;4274;52.012;8.448;2023-08-24T06:59:54;19.20;99.90
8475;DHT22;4274;52.012;8.448;2023-08-24T07:02:20;19.20;99.90
8475;DHT22;4274;52.012;8.448;2023-08-24T07:04:45;19.30;99.90
8475;DHT22;4274;52.012;8.448;2023-08-24T07:07:11;19.30;99.90
8475;DHT22;4274;52.012;8.448;2023-08-24T07:09:36;19.40;99.90
8475;DHT22;4274;52.012;8.448;2023-08-24T07:12:05;19.60;99.90
8475;DHT22;4274;52.012;8.448;2023-08-24T07:14:36;19.90;99.90
8475;DHT22;4274;52.012;8.448;2023-08-24T07:17:02;20.20;99.90
8475;DHT22;4274;52.012;8.448;2023-08-24T07:19:28;20.30;99.90
8475;DHT22;4274;52.012;8.448;2023-08-24T07:21:53;20.50;99.90
8475;DHT22;4274;52.012;8.448;2023-08-24T07:24:19;20.60;99.90
8475;DHT22;4274;52.012;8.448;2023-08-24T07:26:46;20.80;99.90
8475;DHT22;4274;52.012;8.448;2023-08-24T07:29:11;21.00;99.90
8475;DHT22;4274;52.012;8.448;2023-08-24T07:31:37;21.20;99.90
8475;DHT22;4274;52.012;8.448;2023-08-24T07:34:04;21.50;99.90
8475;DHT22;4274;52.012;8.448;2023-08-24T07:36:30;21.70;99.90
8475;DHT22;4274;52.012;8.448;2023-08-24T07:38:56;21.90;99.90
8475;DHT22;4274;52.012;8.448;2023-08-24T07:41:22;22.10;99.90
8475;DHT22;4274;52.012;8.448;2023-08-24T07:43:47;22.30;99.90
8475;DHT22;4274;52.012;8.448;2023-08-24T07:46:13;22.40;99.90
8475;DHT22;4274;52.012;8.448;2023-08-24T07:48:39;22.60;99.90
8475;DHT22;4274;52.012;8.448;2023-08-24T07:51:04;22.70;99.90
8475;DHT22;4274;52.012;8.448;2023-08-24T07:53:30;22.90;99.90
8475;DHT22;4274;52.012;8.448;2023-08-24T07:55:58;23.10;99.90
8475;DHT22;4274;52.012;8.448;2023-08-24T07:58:24;23.20;99.90
8475;DHT22;4274;52.012;8.448;2023-08-24T08:00:50;23.30;99.90
8475;DHT22;4274;52.012;8.448;2023-08-24T08:03:18;23.40;99.90
8475;DHT22;4274;52.012;8.448;2023-08-24T08:05:45;23.50;99.90
8475;DHT22;4274;52.012;8.448;2023-08-24T08:08:11;23.60;99.90
8475;DHT22;4274;52.012;8.448;2023-08-24T08:10:36;23.60;99.90
8475;DHT22;4274;52.012;8.448;2023-08-24T08:13:02;23.80;99.90
8475;DHT22;4274;52.012;8.448;2023-08-24T08:15:27;23.90;99.90
8475;DHT22;4274;52.012;8.448;2023-08-24T08:17:53;24.00;99.90
8475;DHT22;4274;52.012;8.448;2023-08-24T08:20:19;24.20;99.90
8475;DHT22;4274;52.012;8.448;2023-08-24T08:22:44;24.20;99.90
8475;DHT22;4274;52.012;8.448;2023-08-24T08:25:10;24.30;99.90
8475;DHT22;4274;52.012;8.448;2023-08-24T08:27:37;24.30;99.90
8475;DHT22;4274;52.012;8.448;2023-08-24T08:30:03;24.40;99.90
8475;DHT22;4274;52.012;8.448;2023-08-24T08:32:32;24.60;99.90
8475;DHT22;4274;52.012;8.448;2023-08-24T08:34:57;24.80;99.90
8475;DHT22;4274;52.012;8.448;2023-08-24T08:37:25;25.00;99.90
8475;DHT22;4274;52.012;8.448;2023-08-24T08:39:51;25.20;99.90
8475;DHT22;4274;52.012;8.448;2023-08-24T08:42:16;25.30;99.90
8475;DHT22;4274;52.012;8.448;2023-08-24T08:44:44;25.50;99.90
8475;DHT22;4274;52.012;8.448;2023-08-24T08:47:11;25.70;99.90
8475;DHT22;4274;52.012;8.448;2023-08-24T08:49:38;26.00;99.90
8475;DHT22;4274;52.012;8.448;2023-08-24T08:52:05;26.30;99.90
8475;DHT22;4274;52.012;8.448;2023-08-24T08:54:31;26.20;99.90
8475;DHT22;4274;52.012;8.448;2023-08-24T08:56:58;26.00;99.90
8475;DHT22;4274;52.012;8.448;2023-08-24T08:59:30;26.00;99.90
8475;DHT22;4274;52.012;8.448;2023-08-24T09:02:01;26.20;99.90
8475;DHT22;4274;52.012;8.448;2023-08-24T09:04:29;26.30;99.90
8475;DHT22;4274;52.012;8.448;2023-08-24T09:06:55;26.40;99.90
8475;DHT22;4274;52.012;8.448;2023-08-24T09:09:21;26.60;99.90
8475;DHT22;4274;52.012;8.448;2023-08-24T09:11:50;26.80;99.90
8475;DHT22;4274;52.012;8.448;2023-08-24T09:14:16;27.00;99.90
8475;DHT22;4274;52.012;8.448;2023-08-24T09:16:42;27.30;99.90
8475;DHT22;4274;52.012;8.448;2023-08-24T09:19:11;27.40;99.90
8475;DHT22;4274;52.012;8.448;2023-08-24T09:21:40;27.60;99.90
8475;DHT22;4274;52.012;8.448;2023-08-24T09:24:08;27.50;99.90
8475;DHT22;4274;52.012;8.448;2023-08-24T09:26:35;27.50;99.90
8475;DHT22;4274;52.012;8.448;2023-08-24T09:29:11;27.70;99.90
8475;DHT22;4274;52.012;8.448;2023-08-24T09:31:38;27.90;99.90
8475;DHT22;4274;52.012;8.448;2023-08-24T09:34:05;28.20;99.90
8475;DHT22;4274;52.012;8.448;2023-08-24T09:36:35;28.60;99.90
8475;DHT22;4274;52.012;8.448;2023-08-24T09:39:01;28.80;99.90
8475;DHT22;4274;52.012;8.448;2023-08-24T09:41:41;28.70;99.90
8475;DHT22;4274;52.012;8.448;2023-08-24T09:44:08;28.70;99.90
8475;DHT22;4274;52.012;8.448;2023-08-24T09:46:35;28.80;99.90
8475;DHT22;4274;52.012;8.448;2023-08-24T09:49:08;29.10;99.90
8475;DHT22;4274;52.012;8.448;2023-08-24T09:51:35;29.40;99.90
8475;DHT22;4274;52.012;8.448;2023-08-24T09:54:04;30.00;99.90
8475;DHT22;4274;52.012;8.448;2023-08-24T09:56:34;30.80;99.90
8475;DHT22;4274;52.012;8.448;2023-08-24T09:59:04;31.50;99.90
8475;DHT22;4274;52.012;8.448;2023-08-24T10:01:33;31.80;99.90
8475;DHT22;4274;52.012;8.448;2023-08-24T10:03:59;31.60;99.90
8475;DHT22;4274;52.012;8.448;2023-08-24T10:06:27;31.30;99.90
8475;DHT22;4274;52.012;8.448;2023-08-24T10:08:58;31.40;99.90
8475;DHT22;4274;52.012;8.448;2023-08-24T10:11:28;31.50;99.90
8475;DHT22;4274;52.012;8.448;2023-08-24T10:14:08;31.80;99.90
8475;DHT22;4274;52.012;8.448;2023-08-24T10:16:36;31.80;99.90
8475;DHT22;4274;52.012;8.448;2023-08-24T10:19:03;31.90;99.90
8475;DHT22;4274;52.012;8.448;2023-08-24T10:21:30;31.80;99.90
8475;DHT22;4274;52.012;8.448;2023-08-24T10:23:57;31.70;99.90
8475;DHT22;4274;52.012;8.448;2023-08-24T10:26:23;31.60;99.90
8475;DHT22;4274;52.012;8.448;2023-08-24T10:28:50;31.70;99.90
8475;DHT22;4274;52.012;8.448;2023-08-24T10:31:16;32.20;99.90
8475;DHT22;4274;52.012;8.448;2023-08-24T10:33:45;32.30;99.90
8475;DHT22;4274;52.012;8.448;2023-08-24T10:36:12;32.40;99.90
8475;DHT22;4274;52.012;8.448;2023-08-24T10:38:42;32.80;99.90
8475;DHT22;4274;52.012;8.448;2023-08-24T10:41:08;33.20;99.90
8475;DHT22;4274;52.012;8.448;2023-08-24T10:43:37;33.40;99.90
8475;DHT22;4274;52.012;8.448;2023-08-24T10:46:04;33.70;99.90
8475;DHT22;4274;52.012;8.448;2023-08-24T10:53:56;35.40;99.90
8475;DHT22;4274;52.012;8.448;2023-08-24T10:56:36;36.10;99.20
8475;DHT22;4274;52.012;8.448;2023-08-24T10:59:17;36.40;99.90
8475;DHT22;4274;52.012;8.448;2023-08-24T11:04:18;36.50;97.40
8475;DHT22;4274;52.012;8.448;2023-08-24T11:06:59;36.30;96.40
8475;DHT22;4274;52.012;8.448;2023-08-24T11:09:45;36.30;95.50
8475;DHT22;4274;52.012;8.448;2023-08-24T11:12:11;36.10;94.60
8475;DHT22;4274;52.012;8.448;2023-08-24T11:14:48;36.20;95.90
8475;DHT22;4274;52.012;8.448;2023-08-24T11:17:21;36.70;96.90
8475;DHT22;4274;52.012;8.448;2023-08-24T11:19:49;37.50;97.20
8475;DHT22;4274;52.012;8.448;2023-08-24T11:22:16;37.90;93.20
8475;DHT22;4274;52.012;8.448;2023-08-24T11:24:42;37.60;92.80
8475;DHT22;4274;52.012;8.448;2023-08-24T11:27:09;37.00;92.40
8475;DHT22;4274;52.012;8.448;2023-08-24T11:29:34;36.50;92.30
8475;DHT22;4274;52.012;8.448;2023-08-24T11:32:00;35.90;92.20
8475;DHT22;4274;52.012;8.448;2023-08-24T11:34:26;35.50;93.30
8475;DHT22;4274;52.012;8.448;2023-08-24T11:36:51;35.70;93.70
8475;DHT22;4274;52.012;8.448;2023-08-24T11:39:20;35.80;92.70
8475;DHT22;4274;52.012;8.448;2023-08-24T11:42:00;35.80;92.20
8475;DHT22;4274;52.012;8.448;2023-08-24T11:44:26;35.60;92.40
8475;DHT22;4274;52.012;8.448;2023-08-24T11:46:51;35.00;93.40
8475;DHT22;4274;52.012;8.448;2023-08-24T11:49:17;34.60;93.60
8475;DHT22;4274;52.012;8.448;2023-08-24T11:51:43;34.50;94.60
8475;DHT22;4274;52.012;8.448;2023-08-24T11:54:09;34.50;95.80
8475;DHT22;4274;52.012;8.448;2023-08-24T11:56:43;34.60;95.00
8475;DHT22;4274;52.012;8.448;2023-08-24T11:59:16;34.80;95.30
8475;DHT22;4274;52.012;8.448;2023-08-24T12:01:42;34.50;93.80
8475;DHT22;4274;52.012;8.448;2023-08-24T12:04:08;34.00;94.60
8475;DHT22;4274;52.012;8.448;2023-08-24T12:06:34;33.50;94.20
8475;DHT22;4274;52.012;8.448;2023-08-24T12:09:00;32.80;94.80
8475;DHT22;4274;52.012;8.448;2023-08-24T12:11:26;32.40;96.00
8475;DHT22;4274;52.012;8.448;2023-08-24T12:13:54;32.40;96.20
8475;DHT22;4274;52.012;8.448;2023-08-24T12:16:21;32.30;96.50
8475;DHT22;4274;52.012;8.448;2023-08-24T12:18:51;32.30;96.50
8475;DHT22;4274;52.012;8.448;2023-08-24T12:21:17;32.30;95.90
8475;DHT22;4274;52.012;8.448;2023-08-24T12:23:45;32.20;94.80
8475;DHT22;4274;52.012;8.448;2023-08-24T12:26:20;32.20;95.60
8475;DHT22;4274;52.012;8.448;2023-08-24T12:28:49;32.10;95.50
8475;DHT22;4274;52.012;8.448;2023-08-24T12:31:17;31.90;94.90
8475;DHT22;4274;52.012;8.448;2023-08-24T12:33:42;31.50;95.30
8475;DHT22;4274;52.012;8.448;2023-08-24T12:36:09;31.20;95.80
8475;DHT22;4274;52.012;8.448;2023-08-24T12:38:35;31.10;96.20
8475;DHT22;4274;52.012;8.448;2023-08-24T12:41:01;30.90;96.20
8475;DHT22;4274;52.012;8.448;2023-08-24T12:43:26;30.80;96.00
8475;DHT22;4274;52.012;8.448;2023-08-24T12:45:52;30.70;95.90
8475;DHT22;4274;52.012;8.448;2023-08-24T12:48:18;30.70;95.50
8475;DHT22;4274;52.012;8.448;2023-08-24T12:50:43;30.70;96.10
8475;DHT22;4274;52.012;8.448;2023-08-24T12:53:09;30.80;97.00
8475;DHT22;4274;52.012;8.448;2023-08-24T12:55:38;30.90;96.20
8475;DHT22;4274;52.012;8.448;2023-08-24T12:58:04;31.10;96.20
8475;DHT22;4274;52.012;8.448;2023-08-24T13:00:29;31.30;95.60
8475;DHT22;4274;52.012;8.448;2023-08-24T13:02:55;31.30;95.60
8475;DHT22;4274;52.012;8.448;2023-08-24T13:05:21;31.30;95.70
8475;DHT22;4274;52.012;8.448;2023-08-24T13:07:46;31.10;96.20
8475;DHT22;4274;52.012;8.448;2023-08-24T13:10:12;31.00;96.90
8475;DHT22;4274;52.012;8.448;2023-08-24T13:12:38;31.00;96.90
8475;DHT22;4274;52.012;8.448;2023-08-24T13:15:04;31.10;97.80
8475;DHT22;4274;52.012;8.448;2023-08-24T13:17:30;31.10;96.60
8475;DHT22;4274;52.012;8.448;2023-08-24T13:19:56;31.30;97.20
8475;DHT22;4274;52.012;8.448;2023-08-24T13:22:22;31.30;97.60
8475;DHT22;4274;52.012;8.448;2023-08-24T13:24:47;31.30;97.20
8475;DHT22;4274;52.012;8.448;2023-08-24T13:27:13;30.90;97.80
8475;DHT22;4274;52.012;8.448;2023-08-24T13:29:42;30.60;99.10
8475;DHT22;4274;52.012;8.448;2023-08-24T13:32:07;30.50;98.00
8475;DHT22;4274;52.012;8.448;2023-08-24T13:34:33;30.40;98.20
8475;DHT22;4274;52.012;8.448;2023-08-24T13:36:59;30.20;98.20
8475;DHT22;4274;52.012;8.448;2023-08-24T13:39:26;30.00;98.50
8475;DHT22;4274;52.012;8.448;2023-08-24T13:41:54;29.90;99.40
8475;DHT22;4274;52.012;8.448;2023-08-24T13:44:19;29.80;99.90
8475;DHT22;4274;52.012;8.448;2023-08-24T13:46:45;29.70;99.40
8475;DHT22;4274;52.012;8.448;2023-08-24T13:49:11;29.70;99.90
8475;DHT22;4274;52.012;8.448;2023-08-24T13:51:37;29.70;99.90
8475;DHT22;4274;52.012;8.448;2023-08-24T13:54:02;29.60;99.90
8475;DHT22;4274;52.012;8.448;2023-08-24T13:56:28;29.40;99.90
8475;DHT22;4274;52.012;8.448;2023-08-24T13:58:54;29.40;99.90
8475;DHT22;4274;52.012;8.448;2023-08-24T14:01:19;29.30;99.90
8475;DHT22;4274;52.012;8.448;2023-08-24T14:03:45;29.10;99.90
8475;DHT22;4274;52.012;8.448;2023-08-24T14:06:11;28.90;99.90
8475;DHT22;4274;52.012;8.448;2023-08-24T14:08:37;28.60;99.90
8475;DHT22;4274;52.012;8.448;2023-08-24T14:11:02;28.40;99.90
8475;DHT22;4274;52.012;8.448;2023-08-24T14:13:28;28.30;99.90
8475;DHT22;4274;52.012;8.448;2023-08-24T14:15:55;28.20;99.90
8475;DHT22;4274;52.012;8.448;2023-08-24T14:18:21;28.20;99.90
8475;DHT22;4274;52.012;8.448;2023-08-24T14:20:47;28.10;99.90
8475;DHT22;4274;52.012;8.448;2023-08-24T14:23:13;28.00;99.90
8475;DHT22;4274;52.012;8.448;2023-08-24T14:25:38;27.80;99.90
8475;DHT22;4274;52.012;8.448;2023-08-24T14:28:04;27.70;99.90
8475;DHT22;4274;52.012;8.448;2023-08-24T14:30:30;27.60;99.90
8475;DHT22;4274;52.012;8.448;2023-08-24T14:32:55;27.40;99.90
8475;DHT22;4274;52.012;8.448;2023-08-24T14:35:21;27.30;99.90
8475;DHT22;4274;52.012;8.448;2023-08-24T14:37:46;27.10;99.90
8475;DHT22;4274;52.012;8.448;2023-08-24T14:40:12;27.10;99.90
8475;DHT22;4274;52.012;8.448;2023-08-24T14:42:37;27.00;99.90
8475;DHT22;4274;52.012;8.448;2023-08-24T14:45:03;26.90;99.90
8475;DHT22;4274;52.012;8.448;2023-08-24T14:47:29;26.80;99.90
8475;DHT22;4274;52.012;8.448;2023-08-24T14:49:54;26.70;99.90
8475;DHT22;4274;52.012;8.448;2023-08-24T14:52:20;26.70;99.90
8475;DHT22;4274;52.012;8.448;2023-08-24T14:54:45;26.70;99.90
8475;DHT22;4274;52.012;8.448;2023-08-24T14:57:11;26.60;99.90
8475;DHT22;4274;52.012;8.448;2023-08-24T14:59:36;26.50;99.90
8475;DHT22;4274;52.012;8.448;2023-08-24T15:02:02;26.40;99.90
8475;DHT22;4274;52.012;8.448;2023-08-24T15:04:28;26.20;99.90
8475;DHT22;4274;52.012;8.448;2023-08-24T15:06:54;26.10;99.90
8475;DHT22;4274;52.012;8.448;2023-08-24T15:09:19;26.00;99.90
8475;DHT22;4274;52.012;8.448;2023-08-24T15:11:45;25.90;99.90
8475;DHT22;4274;52.012;8.448;2023-08-24T15:14:11;25.80;99.90
8475;DHT22;4274;52.012;8.448;2023-08-24T15:16:36;25.70;99.90
8475;DHT22;4274;52.012;8.448;2023-08-24T15:19:02;25.70;99.90
8475;DHT22;4274;52.012;8.448;2023-08-24T15:21:27;25.70;99.90
8475;DHT22;4274;52.012;8.448;2023-08-24T15:23:54;25.70;99.90
8475;DHT22;4274;52.012;8.448;2023-08-24T15:26:19;25.60;99.90
8475;DHT22;4274;52.012;8.448;2023-08-24T15:29:08;25.60;99.90
8475;DHT22;4274;52.012;8.448;2023-08-24T15:31:35;25.60;99.90
8475;DHT22;4274;52.012;8.448;2023-08-24T15:34:00;25.60;99.90
8475;DHT22;4274;52.012;8.448;2023-08-24T15:36:27;25.60;99.90
8475;DHT22;4274;52.012;8.448;2023-08-24T15:38:52;25.50;99.90
8475;DHT22;4274;52.012;8.448;2023-08-24T15:41:18;25.50;99.90
8475;DHT22;4274;52.012;8.448;2023-08-24T15:43:43;25.50;99.90
8475;DHT22;4274;52.012;8.448;2023-08-24T15:46:09;25.50;99.90
8475;DHT22;4274;52.012;8.448;2023-08-24T15:48:34;25.50;99.90
8475;DHT22;4274;52.012;8.448;2023-08-24T15:51:00;25.50;99.90
8475;DHT22;4274;52.012;8.448;2023-08-24T15:53:25;25.50;99.90
8475;DHT22;4274;52.012;8.448;2023-08-24T15:55:51;25.50;99.90
8475;DHT22;4274;52.012;8.448;2023-08-24T15:58:17;25.40;99.90
8475;DHT22;4274;52.012;8.448;2023-08-24T16:00:43;25.40;99.90
8475;DHT22;4274;52.012;8.448;2023-08-24T16:03:08;25.50;99.90
8475;DHT22;4274;52.012;8.448;2023-08-24T16:05:34;25.50;99.90
8475;DHT22;4274;52.012;8.448;2023-08-24T16:08:00;25.50;99.90
8475;DHT22;4274;52.012;8.448;2023-08-24T16:10:26;25.50;99.90
8475;DHT22;4274;52.012;8.448;2023-08-24T16:12:51;25.50;99.90